sensor_id;sensor_type;location;lat;lon;timestamp;P1;durP1;ratioP1;P2;durP2;ratioP2
58250;SDS011;51449;51.676;5.812;2023-09-19T00:02:01;9.50;;;4.77;;
58250;SDS011;51449;51.676;5.812;2023-09-19T00:04:28;7.73;;;4.60;;
58250;SDS011;51449;51.676;5.812;2023-09-19T00:06:54;9.97;;;4.20;;
58250;SDS011;51449;51.676;5.812;2023-09-19T00:09:16;8.97;;;4.43;;
58250;SDS011;51449;51.676;5.812;2023-09-19T00:11:37;9.83;;;5.23;;
58250;SDS011;51449;51.676;5.812;2023-09-19T00:13:59;8.33;;;4.83;;
58250;SDS011;51449;51.676;5.812;2023-09-19T00:16:21;13.10;;;4.77;;
58250;SDS011;51449;51.676;5.812;2023-09-19T00:18:44;9.33;;;5.10;;
58250;SDS011;51449;51.676;5.812;2023-09-19T00:21:06;10.60;;;4.47;;
58250;SDS011;51449;51.676;5.812;2023-09-19T00:23:29;12.93;;;4.97;;
58250;SDS011;51449;51.676;5.812;2023-09-19T00:25:50;7.97;;;4.87;;
58250;SDS011;51449;51.676;5.812;2023-09-19T00:28:12;11.57;;;5.17;;
58250;SDS011;51449;51.676;5.812;2023-09-19T00:30:34;8.10;;;4.53;;
58250;SDS011;51449;51.676;5.812;2023-09-19T00:32:56;10.47;;;5.03;;
58250;SDS011;51449;51.676;5.812;2023-09-19T00:35:18;7.87;;;4.90;;
58250;SDS011;51449;51.676;5.812;2023-09-19T00:37:40;11.30;;;5.33;;
58250;SDS011;51449;51.676;5.812;2023-09-19T00:40:06;12.00;;;5.93;;
58250;SDS011;51449;51.676;5.812;2023-09-19T00:42:48;7.30;;;4.87;;
58250;SDS011;51449;51.676;5.812;2023-09-19T00:45:11;8.47;;;4.40;;
58250;SDS011;51449;51.676;5.812;2023-09-19T00:47:37;10.20;;;4.77;;
58250;SDS011;51449;51.676;5.812;2023-09-19T00:50:05;9.83;;;4.87;;
58250;SDS011;51449;51.676;5.812;2023-09-19T00:52:29;11.43;;;5.38;;
58250;SDS011;51449;51.676;5.812;2023-09-19T00:54:53;12.25;;;5.05;;
58250;SDS011;51449;51.676;5.812;2023-09-19T00:57:16;8.93;;;5.37;;
58250;SDS011;51449;51.676;5.812;2023-09-19T00:59:38;11.07;;;4.53;;
58250;SDS011;51449;51.676;5.812;2023-09-19T01:02:01;6.03;;;4.87;;
58250;SDS011;51449;51.676;5.812;2023-09-19T01:04:26;10.67;;;5.20;;
58250;SDS011;51449;51.676;5.812;2023-09-19T01:06:49;9.27;;;5.23;;
58250;SDS011;51449;51.676;5.812;2023-09-19T01:09:14;11.30;;;5.53;;
58250;SDS011;51449;51.676;5.812;2023-09-19T01:11:43;8.23;;;4.80;;
58250;SDS011;51449;51.676;5.812;2023-09-19T01:17:27;7.47;;;4.73;;
58250;SDS011;51449;51.676;5.812;2023-09-19T01:20:03;8.70;;;4.97;;
58250;SDS011;51449;51.676;5.812;2023-09-19T01:28:31;9.43;;;4.32;;
58250;SDS011;51449;51.676;5.812;2023-09-19T01:31:06;8.37;;;4.60;;
58250;SDS011;51449;51.676;5.812;2023-09-19T01:36:21;10.00;;;4.50;;
58250;SDS011;51449;51.676;5.812;2023-09-19T01:38:45;11.15;;;4.75;;
58250;SDS011;51449;51.676;5.812;2023-09-19T01:41:08;9.27;;;5.43;;
58250;SDS011;51449;51.676;5.812;2023-09-19T01:43:41;9.00;;;4.80;;
58250;SDS011;51449;51.676;5.812;2023-09-19T01:46:16;8.30;;;4.17;;
58250;SDS011;51449;51.676;5.812;2023-09-19T01:51:32;11.20;;;4.37;;
58250;SDS011;51449;51.676;5.812;2023-09-19T01:54:11;9.63;;;4.27;;
58250;SDS011;51449;51.676;5.812;2023-09-19T01:56:45;7.15;;;4.00;;
58250;SDS011;51449;51.676;5.812;2023-09-19T01:59:16;7.23;;;3.13;;
58250;SDS011;51449;51.676;5.812;2023-09-19T02:01:45;7.97;;;3.77;;
58250;SDS011;51449;51.676;5.812;2023-09-19T02:04:11;7.13;;;3.27;;
58250;SDS011;51449;51.676;5.812;2023-09-19T02:06:32;8.93;;;4.23;;
58250;SDS011;51449;51.676;5.812;2023-09-19T02:08:55;6.57;;;3.70;;
58250;SDS011;51449;51.676;5.812;2023-09-19T02:11:17;9.17;;;3.67;;
58250;SDS011;51449;51.676;5.812;2023-09-19T02:13:39;13.20;;;5.40;;
58250;SDS011;51449;51.676;5.812;2023-09-19T02:16:03;9.50;;;3.70;;
58250;SDS011;51449;51.676;5.812;2023-09-19T02:18:25;7.50;;;3.77;;
58250;SDS011;51449;51.676;5.812;2023-09-19T02:20:49;7.53;;;3.75;;
58250;SDS011;51449;51.676;5.812;2023-09-19T02:23:13;8.33;;;3.57;;
58250;SDS011;51449;51.676;5.812;2023-09-19T02:25:35;7.87;;;3.67;;
58250;SDS011;51449;51.676;5.812;2023-09-19T02:27:57;11.67;;;2.97;;
58250;SDS011;51449;51.676;5.812;2023-09-19T02:30:20;7.47;;;4.00;;
58250;SDS011;51449;51.676;5.812;2023-09-19T02:32:44;7.03;;;3.67;;
58250;SDS011;51449;51.676;5.812;2023-09-19T02:35:06;5.67;;;3.03;;
58250;SDS011;51449;51.676;5.812;2023-09-19T02:37:29;6.80;;;2.77;;
58250;SDS011;51449;51.676;5.812;2023-09-19T02:39:50;9.93;;;3.70;;
58250;SDS011;51449;51.676;5.812;2023-09-19T02:42:12;8.93;;;3.43;;
58250;SDS011;51449;51.676;5.812;2023-09-19T02:44:34;9.97;;;3.30;;
58250;SDS011;51449;51.676;5.812;2023-09-19T02:46:56;8.47;;;3.37;;
58250;SDS011;51449;51.676;5.812;2023-09-19T02:49:18;7.53;;;3.50;;
58250;SDS011;51449;51.676;5.812;2023-09-19T02:51:40;6.00;;;3.03;;
58250;SDS011;51449;51.676;5.812;2023-09-19T02:54:02;6.37;;;3.17;;
58250;SDS011;51449;51.676;5.812;2023-09-19T02:56:24;6.93;;;3.13;;
58250;SDS011;51449;51.676;5.812;2023-09-19T02:58:46;10.43;;;3.37;;
58250;SDS011;51449;51.676;5.812;2023-09-19T03:01:10;10.25;;;3.53;;
58250;SDS011;51449;51.676;5.812;2023-09-19T03:03:36;10.87;;;3.77;;
58250;SDS011;51449;51.676;5.812;2023-09-19T03:06:00;7.95;;;3.45;;
58250;SDS011;51449;51.676;5.812;2023-09-19T03:08:25;10.10;;;3.97;;
58250;SDS011;51449;51.676;5.812;2023-09-19T03:10:47;8.97;;;3.77;;
58250;SDS011;51449;51.676;5.812;2023-09-19T03:13:12;7.13;;;3.30;;
58250;SDS011;51449;51.676;5.812;2023-09-19T03:15:33;9.83;;;3.67;;
58250;SDS011;51449;51.676;5.812;2023-09-19T03:17:55;10.53;;;3.37;;
58250;SDS011;51449;51.676;5.812;2023-09-19T03:20:19;4.30;;;3.13;;
58250;SDS011;51449;51.676;5.812;2023-09-19T03:22:43;7.43;;;3.50;;
58250;SDS011;51449;51.676;5.812;2023-09-19T03:25:06;7.00;;;3.13;;
58250;SDS011;51449;51.676;5.812;2023-09-19T03:27:31;7.90;;;3.03;;
58250;SDS011;51449;51.676;5.812;2023-09-19T03:29:52;9.00;;;3.07;;
58250;SDS011;51449;51.676;5.812;2023-09-19T03:32:15;7.03;;;2.90;;
58250;SDS011;51449;51.676;5.812;2023-09-19T03:34:39;6.33;;;2.73;;
58250;SDS011;51449;51.676;5.812;2023-09-19T03:37:05;10.80;;;2.80;;
58250;SDS011;51449;51.676;5.812;2023-09-19T03:39:28;7.20;;;2.57;;
58250;SDS011;51449;51.676;5.812;2023-09-19T03:41:49;8.93;;;3.37;;
58250;SDS011;51449;51.676;5.812;2023-09-19T03:44:11;6.47;;;2.70;;
58250;SDS011;51449;51.676;5.812;2023-09-19T03:46:33;3.97;;;2.47;;
58250;SDS011;51449;51.676;5.812;2023-09-19T03:48:57;7.05;;;2.65;;
58250;SDS011;51449;51.676;5.812;2023-09-19T03:51:18;6.07;;;2.37;;
58250;SDS011;51449;51.676;5.812;2023-09-19T03:53:40;5.57;;;2.50;;
58250;SDS011;51449;51.676;5.812;2023-09-19T03:56:03;6.60;;;2.80;;
58250;SDS011;51449;51.676;5.812;2023-09-19T03:58:27;9.77;;;2.80;;
58250;SDS011;51449;51.676;5.812;2023-09-19T04:00:49;5.97;;;2.57;;
58250;SDS011;51449;51.676;5.812;2023-09-19T04:03:11;5.07;;;2.23;;
58250;SDS011;51449;51.676;5.812;2023-09-19T04:05:41;6.97;;;2.37;;
58250;SDS011;51449;51.676;5.812;2023-09-19T04:08:02;6.20;;;2.37;;
58250;SDS011;51449;51.676;5.812;2023-09-19T04:10:24;7.23;;;3.03;;
58250;SDS011;51449;51.676;5.812;2023-09-19T04:12:54;7.32;;;3.95;;
58250;SDS011;51449;51.676;5.812;2023-09-19T04:15:17;8.03;;;2.93;;
58250;SDS011;51449;51.676;5.812;2023-09-19T04:17:39;10.90;;;3.90;;
58250;SDS011;51449;51.676;5.812;2023-09-19T04:20:01;6.73;;;2.63;;
58250;SDS011;51449;51.676;5.812;2023-09-19T04:22:25;9.10;;;3.03;;
58250;SDS011;51449;51.676;5.812;2023-09-19T04:24:47;9.93;;;3.27;;
58250;SDS011;51449;51.676;5.812;2023-09-19T04:27:09;5.67;;;2.53;;
58250;SDS011;51449;51.676;5.812;2023-09-19T04:29:31;7.07;;;3.00;;
58250;SDS011;51449;51.676;5.812;2023-09-19T04:31:53;5.23;;;2.87;;
58250;SDS011;51449;51.676;5.812;2023-09-19T04:34:15;7.50;;;2.67;;
58250;SDS011;51449;51.676;5.812;2023-09-19T04:36:37;8.83;;;3.10;;
58250;SDS011;51449;51.676;5.812;2023-09-19T04:38:58;7.83;;;2.97;;
58250;SDS011;51449;51.676;5.812;2023-09-19T04:41:20;8.00;;;3.50;;
58250;SDS011;51449;51.676;5.812;2023-09-19T04:43:43;9.13;;;3.00;;
58250;SDS011;51449;51.676;5.812;2023-09-19T04:46:05;7.53;;;3.30;;
58250;SDS011;51449;51.676;5.812;2023-09-19T04:48:28;11.03;;;4.00;;
58250;SDS011;51449;51.676;5.812;2023-09-19T04:50:50;6.87;;;2.83;;
58250;SDS011;51449;51.676;5.812;2023-09-19T04:53:12;6.90;;;3.57;;
58250;SDS011;51449;51.676;5.812;2023-09-19T04:55:34;9.37;;;3.63;;
58250;SDS011;51449;51.676;5.812;2023-09-19T04:57:55;11.10;;;3.70;;
58250;SDS011;51449;51.676;5.812;2023-09-19T05:00:18;5.97;;;3.30;;
58250;SDS011;51449;51.676;5.812;2023-09-19T05:02:46;8.90;;;3.63;;
58250;SDS011;51449;51.676;5.812;2023-09-19T05:05:14;9.60;;;3.80;;
58250;SDS011;51449;51.676;5.812;2023-09-19T05:07:36;6.73;;;4.10;;
58250;SDS011;51449;51.676;5.812;2023-09-19T05:10:00;6.75;;;3.78;;
58250;SDS011;51449;51.676;5.812;2023-09-19T05:12:22;9.10;;;4.07;;
58250;SDS011;51449;51.676;5.812;2023-09-19T05:14:44;7.67;;;3.23;;
58250;SDS011;51449;51.676;5.812;2023-09-19T05:17:05;9.50;;;3.63;;
58250;SDS011;51449;51.676;5.812;2023-09-19T05:19:27;7.10;;;3.80;;
58250;SDS011;51449;51.676;5.812;2023-09-19T05:21:49;6.00;;;3.23;;
58250;SDS011;51449;51.676;5.812;2023-09-19T05:24:10;6.00;;;3.30;;
58250;SDS011;51449;51.676;5.812;2023-09-19T05:26:33;9.07;;;3.57;;
58250;SDS011;51449;51.676;5.812;2023-09-19T05:28:55;13.13;;;3.73;;
58250;SDS011;51449;51.676;5.812;2023-09-19T05:31:18;9.20;;;3.77;;
58250;SDS011;51449;51.676;5.812;2023-09-19T05:33:39;11.70;;;4.30;;
58250;SDS011;51449;51.676;5.812;2023-09-19T05:36:01;8.33;;;3.73;;
58250;SDS011;51449;51.676;5.812;2023-09-19T05:38:24;6.60;;;4.13;;
58250;SDS011;51449;51.676;5.812;2023-09-19T05:40:47;9.85;;;3.50;;
58250;SDS011;51449;51.676;5.812;2023-09-19T05:43:09;8.37;;;3.47;;
58250;SDS011;51449;51.676;5.812;2023-09-19T05:45:31;7.20;;;4.00;;
58250;SDS011;51449;51.676;5.812;2023-09-19T05:47:53;6.93;;;4.20;;
58250;SDS011;51449;51.676;5.812;2023-09-19T05:50:25;10.83;;;3.87;;
58250;SDS011;51449;51.676;5.812;2023-09-19T05:52:53;6.67;;;3.50;;
58250;SDS011;51449;51.676;5.812;2023-09-19T05:55:18;7.87;;;3.93;;
58250;SDS011;51449;51.676;5.812;2023-09-19T05:57:40;7.40;;;3.57;;
58250;SDS011;51449;51.676;5.812;2023-09-19T06:00:04;7.88;;;3.97;;
58250;SDS011;51449;51.676;5.812;2023-09-19T06:02:35;10.30;;;3.53;;
58250;SDS011;51449;51.676;5.812;2023-09-19T06:04:59;10.80;;;4.10;;
58250;SDS011;51449;51.676;5.812;2023-09-19T06:07:21;7.47;;;3.73;;
58250;SDS011;51449;51.676;5.812;2023-09-19T06:09:47;8.10;;;3.33;;
58250;SDS011;51449;51.676;5.812;2023-09-19T06:12:09;7.37;;;3.27;;
58250;SDS011;51449;51.676;5.812;2023-09-19T06:14:30;10.33;;;3.87;;
58250;SDS011;51449;51.676;5.812;2023-09-19T06:16:53;9.10;;;3.83;;
58250;SDS011;51449;51.676;5.812;2023-09-19T06:19:15;10.93;;;4.53;;
58250;SDS011;51449;51.676;5.812;2023-09-19T06:21:37;11.00;;;4.07;;
58250;SDS011;51449;51.676;5.812;2023-09-19T06:24:00;8.70;;;3.53;;
58250;SDS011;51449;51.676;5.812;2023-09-19T06:26:22;8.30;;;4.17;;
58250;SDS011;51449;51.676;5.812;2023-09-19T06:28:44;9.03;;;3.57;;
58250;SDS011;51449;51.676;5.812;2023-09-19T06:31:06;5.87;;;3.43;;
58250;SDS011;51449;51.676;5.812;2023-09-19T06:33:31;7.40;;;3.30;;
58250;SDS011;51449;51.676;5.812;2023-09-19T06:35:53;8.13;;;3.77;;
58250;SDS011;51449;51.676;5.812;2023-09-19T06:38:20;6.97;;;3.97;;
58250;SDS011;51449;51.676;5.812;2023-09-19T06:40:42;7.27;;;3.97;;
58250;SDS011;51449;51.676;5.812;2023-09-19T06:43:04;8.30;;;3.77;;
58250;SDS011;51449;51.676;5.812;2023-09-19T06:45:26;8.67;;;3.50;;
58250;SDS011;51449;51.676;5.812;2023-09-19T06:47:49;8.70;;;3.93;;
58250;SDS011;51449;51.676;5.812;2023-09-19T06:52:35;8.17;;;3.23;;
58250;SDS011;51449;51.676;5.812;2023-09-19T06:54:57;7.27;;;3.40;;
58250;SDS011;51449;51.676;5.812;2023-09-19T06:57:19;7.67;;;4.13;;
58250;SDS011;51449;51.676;5.812;2023-09-19T06:59:41;9.73;;;3.70;;
58250;SDS011;51449;51.676;5.812;2023-09-19T07:02:02;9.83;;;3.60;;
58250;SDS011;51449;51.676;5.812;2023-09-19T07:04:27;7.87;;;3.33;;
58250;SDS011;51449;51.676;5.812;2023-09-19T07:06:49;7.70;;;3.37;;
58250;SDS011;51449;51.676;5.812;2023-09-19T07:09:11;8.97;;;3.80;;
58250;SDS011;51449;51.676;5.812;2023-09-19T07:11:34;8.80;;;3.37;;
58250;SDS011;51449;51.676;5.812;2023-09-19T07:13:56;11.23;;;4.30;;
58250;SDS011;51449;51.676;5.812;2023-09-19T07:16:19;7.83;;;3.60;;
58250;SDS011;51449;51.676;5.812;2023-09-19T07:18:50;10.63;;;3.53;;
58250;SDS011;51449;51.676;5.812;2023-09-19T07:21:12;6.33;;;3.20;;
58250;SDS011;51449;51.676;5.812;2023-09-19T07:23:37;6.63;;;3.47;;
58250;SDS011;51449;51.676;5.812;2023-09-19T07:26:00;9.17;;;4.10;;
58250;SDS011;51449;51.676;5.812;2023-09-19T07:28:23;6.00;;;3.23;;
58250;SDS011;51449;51.676;5.812;2023-09-19T07:30:44;8.23;;;4.07;;
58250;SDS011;51449;51.676;5.812;2023-09-19T07:33:06;9.10;;;3.43;;
58250;SDS011;51449;51.676;5.812;2023-09-19T07:35:32;8.87;;;3.63;;
58250;SDS011;51449;51.676;5.812;2023-09-19T07:37:54;11.43;;;3.50;;
58250;SDS011;51449;51.676;5.812;2023-09-19T07:40:18;9.03;;;3.07;;
58250;SDS011;51449;51.676;5.812;2023-09-19T07:42:42;11.32;;;3.08;;
58250;SDS011;51449;51.676;5.812;2023-09-19T07:45:05;7.03;;;3.03;;
58250;SDS011;51449;51.676;5.812;2023-09-19T07:47:30;6.47;;;2.73;;
58250;SDS011;51449;51.676;5.812;2023-09-19T07:49:54;8.23;;;2.60;;
58250;SDS011;51449;51.676;5.812;2023-09-19T07:52:17;10.23;;;2.93;;
58250;SDS011;51449;51.676;5.812;2023-09-19T07:54:39;9.47;;;3.03;;
58250;SDS011;51449;51.676;5.812;2023-09-19T07:57:02;9.02;;;3.50;;
58250;SDS011;51449;51.676;5.812;2023-09-19T07:59:25;9.93;;;2.83;;
58250;SDS011;51449;51.676;5.812;2023-09-19T08:01:47;10.37;;;2.97;;
58250;SDS011;51449;51.676;5.812;2023-09-19T08:04:09;9.53;;;2.13;;
58250;SDS011;51449;51.676;5.812;2023-09-19T08:06:31;7.77;;;2.50;;
58250;SDS011;51449;51.676;5.812;2023-09-19T08:08:52;5.60;;;2.40;;
58250;SDS011;51449;51.676;5.812;2023-09-19T08:11:16;7.80;;;2.63;;
58250;SDS011;51449;51.676;5.812;2023-09-19T08:13:42;8.10;;;2.67;;
58250;SDS011;51449;51.676;5.812;2023-09-19T08:16:10;6.97;;;2.50;;
58250;SDS011;51449;51.676;5.812;2023-09-19T08:18:32;11.13;;;2.17;;
58250;SDS011;51449;51.676;5.812;2023-09-19T08:20:54;6.47;;;2.37;;
58250;SDS011;51449;51.676;5.812;2023-09-19T08:23:16;9.67;;;2.90;;
58250;SDS011;51449;51.676;5.812;2023-09-19T08:25:41;9.30;;;2.80;;
58250;SDS011;51449;51.676;5.812;2023-09-19T08:28:03;7.03;;;2.40;;
58250;SDS011;51449;51.676;5.812;2023-09-19T08:30:29;9.50;;;2.33;;
58250;SDS011;51449;51.676;5.812;2023-09-19T08:32:51;11.70;;;2.53;;
58250;SDS011;51449;51.676;5.812;2023-09-19T08:35:23;9.17;;;3.07;;
58250;SDS011;51449;51.676;5.812;2023-09-19T08:37:45;8.27;;;2.40;;
58250;SDS011;51449;51.676;5.812;2023-09-19T08:40:08;14.33;;;3.03;;
58250;SDS011;51449;51.676;5.812;2023-09-19T08:42:30;11.10;;;2.87;;
58250;SDS011;51449;51.676;5.812;2023-09-19T08:44:52;7.67;;;2.07;;
58250;SDS011;51449;51.676;5.812;2023-09-19T08:47:16;11.63;;;2.47;;
58250;SDS011;51449;51.676;5.812;2023-09-19T08:50:17;9.10;;;2.67;;
58250;SDS011;51449;51.676;5.812;2023-09-19T08:52:47;5.60;;;2.23;;
58250;SDS011;51449;51.676;5.812;2023-09-19T08:55:16;9.60;;;2.43;;
58250;SDS011;51449;51.676;5.812;2023-09-19T08:57:43;9.97;;;2.27;;
58250;SDS011;51449;51.676;5.812;2023-09-19T09:00:11;9.63;;;2.40;;
58250;SDS011;51449;51.676;5.812;2023-09-19T09:02:37;7.53;;;2.28;;
58250;SDS011;51449;51.676;5.812;2023-09-19T09:05:04;7.50;;;2.10;;
58250;SDS011;51449;51.676;5.812;2023-09-19T09:07:27;11.30;;;2.60;;
58250;SDS011;51449;51.676;5.812;2023-09-19T09:09:50;9.48;;;2.45;;
58250;SDS011;51449;51.676;5.812;2023-09-19T09:12:12;6.32;;;2.05;;
58250;SDS011;51449;51.676;5.812;2023-09-19T09:14:36;7.40;;;1.95;;
58250;SDS011;51449;51.676;5.812;2023-09-19T09:16:59;6.90;;;2.40;;
58250;SDS011;51449;51.676;5.812;2023-09-19T09:19:22;7.70;;;2.30;;
58250;SDS011;51449;51.676;5.812;2023-09-19T09:21:46;7.05;;;2.30;;
58250;SDS011;51449;51.676;5.812;2023-09-19T09:26:59;9.63;;;2.40;;
58250;SDS011;51449;51.676;5.812;2023-09-19T09:32:19;9.98;;;2.85;;
58250;SDS011;51449;51.676;5.812;2023-09-19T09:34:49;7.28;;;2.10;;
58250;SDS011;51449;51.676;5.812;2023-09-19T09:37:13;8.15;;;2.35;;
58250;SDS011;51449;51.676;5.812;2023-09-19T09:39:37;7.70;;;2.30;;
58250;SDS011;51449;51.676;5.812;2023-09-19T09:41:59;11.15;;;2.58;;
58250;SDS011;51449;51.676;5.812;2023-09-19T09:44:21;9.02;;;2.28;;
58250;SDS011;51449;51.676;5.812;2023-09-19T09:46:49;6.95;;;2.17;;
58250;SDS011;51449;51.676;5.812;2023-09-19T09:49:11;8.57;;;2.60;;
58250;SDS011;51449;51.676;5.812;2023-09-19T09:51:40;11.55;;;2.95;;
58250;SDS011;51449;51.676;5.812;2023-09-19T09:54:14;5.88;;;2.38;;
58250;SDS011;51449;51.676;5.812;2023-09-19T09:56:57;8.73;;;2.47;;
58250;SDS011;51449;51.676;5.812;2023-09-19T09:59:22;7.60;;;2.67;;
58250;SDS011;51449;51.676;5.812;2023-09-19T10:01:46;7.00;;;2.03;;
58250;SDS011;51449;51.676;5.812;2023-09-19T10:04:10;8.27;;;2.13;;
58250;SDS011;51449;51.676;5.812;2023-09-19T10:06:40;8.15;;;2.22;;
58250;SDS011;51449;51.676;5.812;2023-09-19T10:09:08;8.57;;;2.53;;
58250;SDS011;51449;51.676;5.812;2023-09-19T10:12:03;8.23;;;2.38;;
58250;SDS011;51449;51.676;5.812;2023-09-19T10:14:30;8.02;;;2.20;;
58250;SDS011;51449;51.676;5.812;2023-09-19T10:16:59;9.48;;;2.40;;
58250;SDS011;51449;51.676;5.812;2023-09-19T10:19:29;6.78;;;1.95;;
58250;SDS011;51449;51.676;5.812;2023-09-19T10:21:59;7.68;;;2.50;;
58250;SDS011;51449;51.676;5.812;2023-09-19T10:24:23;6.45;;;2.25;;
58250;SDS011;51449;51.676;5.812;2023-09-19T10:26:49;9.35;;;2.25;;
58250;SDS011;51449;51.676;5.812;2023-09-19T10:29:15;5.05;;;1.83;;
58250;SDS011;51449;51.676;5.812;2023-09-19T10:31:38;6.35;;;2.10;;
58250;SDS011;51449;51.676;5.812;2023-09-19T10:34:09;6.07;;;2.22;;
58250;SDS011;51449;51.676;5.812;2023-09-19T10:36:32;5.25;;;2.05;;
58250;SDS011;51449;51.676;5.812;2023-09-19T10:38:57;5.88;;;2.15;;
58250;SDS011;51449;51.676;5.812;2023-09-19T10:41:25;5.85;;;2.13;;
58250;SDS011;51449;51.676;5.812;2023-09-19T10:43:53;6.18;;;2.60;;
58250;SDS011;51449;51.676;5.812;2023-09-19T10:46:17;6.90;;;2.13;;
58250;SDS011;51449;51.676;5.812;2023-09-19T10:48:40;5.38;;;1.70;;
58250;SDS011;51449;51.676;5.812;2023-09-19T10:51:06;9.00;;;2.67;;
58250;SDS011;51449;51.676;5.812;2023-09-19T10:53:41;6.35;;;2.05;;
58250;SDS011;51449;51.676;5.812;2023-09-19T10:56:15;6.07;;;1.90;;
58250;SDS011;51449;51.676;5.812;2023-09-19T10:58:49;5.80;;;1.90;;
58250;SDS011;51449;51.676;5.812;2023-09-19T11:01:11;7.20;;;1.98;;
58250;SDS011;51449;51.676;5.812;2023-09-19T11:03:34;6.90;;;2.00;;
58250;SDS011;51449;51.676;5.812;2023-09-19T11:08:28;5.80;;;2.05;;
58250;SDS011;51449;51.676;5.812;2023-09-19T11:10:50;8.50;;;2.00;;
58250;SDS011;51449;51.676;5.812;2023-09-19T11:13:29;5.22;;;1.80;;
58250;SDS011;51449;51.676;5.812;2023-09-19T11:26:44;9.05;;;2.25;;
58250;SDS011;51449;51.676;5.812;2023-09-19T11:31:51;6.40;;;1.48;;
58250;SDS011;51449;51.676;5.812;2023-09-19T11:36:57;6.18;;;1.90;;
58250;SDS011;51449;51.676;5.812;2023-09-19T11:39:26;5.70;;;1.60;;
58250;SDS011;51449;51.676;5.812;2023-09-19T11:41:48;7.38;;;1.63;;
58250;SDS011;51449;51.676;5.812;2023-09-19T11:46:57;6.47;;;1.55;;
58250;SDS011;51449;51.676;5.812;2023-09-19T11:49:32;7.57;;;1.85;;
58250;SDS011;51449;51.676;5.812;2023-09-19T11:51:55;5.35;;;1.70;;
58250;SDS011;51449;51.676;5.812;2023-09-19T11:54:18;7.45;;;1.80;;
58250;SDS011;51449;51.676;5.812;2023-09-19T11:56:43;4.68;;;1.17;;
58250;SDS011;51449;51.676;5.812;2023-09-19T11:59:22;4.63;;;1.80;;
58250;SDS011;51449;51.676;5.812;2023-09-19T12:01:50;5.22;;;1.73;;
58250;SDS011;51449;51.676;5.812;2023-09-19T12:04:20;4.97;;;1.80;;
58250;SDS011;51449;51.676;5.812;2023-09-19T12:06:59;4.65;;;1.48;;
58250;SDS011;51449;51.676;5.812;2023-09-19T12:09:21;4.20;;;1.60;;
58250;SDS011;51449;51.676;5.812;2023-09-19T12:11:43;6.60;;;1.80;;
58250;SDS011;51449;51.676;5.812;2023-09-19T12:14:08;7.07;;;1.80;;
58250;SDS011;51449;51.676;5.812;2023-09-19T12:16:29;4.78;;;1.73;;
58250;SDS011;51449;51.676;5.812;2023-09-19T12:18:52;4.00;;;1.60;;
58250;SDS011;51449;51.676;5.812;2023-09-19T12:21:22;4.07;;;1.27;;
58250;SDS011;51449;51.676;5.812;2023-09-19T12:24:04;3.72;;;1.25;;
58250;SDS011;51449;51.676;5.812;2023-09-19T12:26:41;2.03;;;1.13;;
58250;SDS011;51449;51.676;5.812;2023-09-19T12:29:11;4.88;;;1.40;;
58250;SDS011;51449;51.676;5.812;2023-09-19T12:31:35;2.42;;;1.10;;
58250;SDS011;51449;51.676;5.812;2023-09-19T12:33:58;4.60;;;1.17;;
58250;SDS011;51449;51.676;5.812;2023-09-19T12:36:23;6.13;;;1.40;;
58250;SDS011;51449;51.676;5.812;2023-09-19T12:38:47;3.17;;;1.42;;
58250;SDS011;51449;51.676;5.812;2023-09-19T12:41:10;4.63;;;1.30;;
58250;SDS011;51449;51.676;5.812;2023-09-19T12:43:32;5.10;;;1.58;;
58250;SDS011;51449;51.676;5.812;2023-09-19T12:45:55;4.25;;;1.48;;
58250;SDS011;51449;51.676;5.812;2023-09-19T12:48:24;3.78;;;1.33;;
58250;SDS011;51449;51.676;5.812;2023-09-19T12:51:07;4.32;;;1.25;;
58250;SDS011;51449;51.676;5.812;2023-09-19T12:53:38;3.42;;;1.02;;
58250;SDS011;51449;51.676;5.812;2023-09-19T12:56:08;3.45;;;1.40;;
58250;SDS011;51449;51.676;5.812;2023-09-19T12:58:35;3.42;;;1.13;;
58250;SDS011;51449;51.676;5.812;2023-09-19T13:01:16;2.97;;;1.30;;
58250;SDS011;51449;51.676;5.812;2023-09-19T13:03:39;3.85;;;1.05;;
58250;SDS011;51449;51.676;5.812;2023-09-19T13:06:02;4.55;;;1.13;;
58250;SDS011;51449;51.676;5.812;2023-09-19T13:08:26;3.58;;;1.20;;
58250;SDS011;51449;51.676;5.812;2023-09-19T13:13:36;3.47;;;1.30;;
58250;SDS011;51449;51.676;5.812;2023-09-19T13:16:23;1.75;;;1.13;;
58250;SDS011;51449;51.676;5.812;2023-09-19T13:18:47;4.00;;;1.25;;
58250;SDS011;51449;51.676;5.812;2023-09-19T13:21:15;3.25;;;1.25;;
58250;SDS011;51449;51.676;5.812;2023-09-19T13:23:43;1.98;;;1.30;;
58250;SDS011;51449;51.676;5.812;2023-09-19T13:26:05;3.90;;;1.33;;
58250;SDS011;51449;51.676;5.812;2023-09-19T13:28:27;3.03;;;1.20;;
58250;SDS011;51449;51.676;5.812;2023-09-19T13:30:49;3.08;;;1.30;;
58250;SDS011;51449;51.676;5.812;2023-09-19T13:33:11;3.45;;;1.30;;
58250;SDS011;51449;51.676;5.812;2023-09-19T13:35:36;2.90;;;1.58;;
58250;SDS011;51449;51.676;5.812;2023-09-19T13:38:01;3.55;;;1.23;;
58250;SDS011;51449;51.676;5.812;2023-09-19T13:40:23;2.83;;;1.17;;
58250;SDS011;51449;51.676;5.812;2023-09-19T13:42:44;2.88;;;1.10;;
58250;SDS011;51449;51.676;5.812;2023-09-19T13:45:06;5.15;;;1.00;;
58250;SDS011;51449;51.676;5.812;2023-09-19T13:47:31;3.83;;;1.20;;
58250;SDS011;51449;51.676;5.812;2023-09-19T13:49:54;2.13;;;1.10;;
58250;SDS011;51449;51.676;5.812;2023-09-19T13:52:15;2.55;;;1.10;;
58250;SDS011;51449;51.676;5.812;2023-09-19T13:54:38;3.88;;;1.35;;
58250;SDS011;51449;51.676;5.812;2023-09-19T13:57:00;4.55;;;1.20;;
58250;SDS011;51449;51.676;5.812;2023-09-19T13:59:22;2.58;;;1.20;;
58250;SDS011;51449;51.676;5.812;2023-09-19T14:01:45;2.33;;;0.93;;
58250;SDS011;51449;51.676;5.812;2023-09-19T14:04:07;1.70;;;0.77;;
58250;SDS011;51449;51.676;5.812;2023-09-19T14:06:30;2.50;;;1.25;;
58250;SDS011;51449;51.676;5.812;2023-09-19T14:08:51;2.58;;;1.20;;
58250;SDS011;51449;51.676;5.812;2023-09-19T14:11:13;3.40;;;1.40;;
58250;SDS011;51449;51.676;5.812;2023-09-19T14:13:35;4.05;;;1.10;;
58250;SDS011;51449;51.676;5.812;2023-09-19T14:15:57;2.13;;;1.00;;
58250;SDS011;51449;51.676;5.812;2023-09-19T14:18:19;3.22;;;1.10;;
58250;SDS011;51449;51.676;5.812;2023-09-19T14:20:43;4.22;;;1.13;;
58250;SDS011;51449;51.676;5.812;2023-09-19T14:23:05;2.97;;;1.42;;
58250;SDS011;51449;51.676;5.812;2023-09-19T14:25:28;2.58;;;1.10;;
58250;SDS011;51449;51.676;5.812;2023-09-19T14:27:51;6.40;;;1.50;;
58250;SDS011;51449;51.676;5.812;2023-09-19T14:30:13;1.60;;;1.15;;
58250;SDS011;51449;51.676;5.812;2023-09-19T14:32:35;1.90;;;1.20;;
58250;SDS011;51449;51.676;5.812;2023-09-19T14:34:57;3.88;;;1.40;;
58250;SDS011;51449;51.676;5.812;2023-09-19T14:37:19;2.28;;;1.20;;
58250;SDS011;51449;51.676;5.812;2023-09-19T14:39:42;3.50;;;1.20;;
58250;SDS011;51449;51.676;5.812;2023-09-19T14:42:07;3.05;;;1.40;;
58250;SDS011;51449;51.676;5.812;2023-09-19T14:44:30;2.15;;;1.00;;
58250;SDS011;51449;51.676;5.812;2023-09-19T14:46:52;3.80;;;1.30;;
58250;SDS011;51449;51.676;5.812;2023-09-19T14:49:13;2.67;;;1.30;;
58250;SDS011;51449;51.676;5.812;2023-09-19T14:51:37;3.15;;;1.30;;
58250;SDS011;51449;51.676;5.812;2023-09-19T14:54:03;2.95;;;1.63;;
58250;SDS011;51449;51.676;5.812;2023-09-19T14:56:25;2.67;;;1.40;;
58250;SDS011;51449;51.676;5.812;2023-09-19T14:58:47;3.47;;;1.30;;
58250;SDS011;51449;51.676;5.812;2023-09-19T15:01:09;3.40;;;1.35;;
58250;SDS011;51449;51.676;5.812;2023-09-19T15:03:33;4.93;;;1.40;;
58250;SDS011;51449;51.676;5.812;2023-09-19T15:05:59;3.45;;;1.55;;
58250;SDS011;51449;51.676;5.812;2023-09-19T15:08:29;2.20;;;1.27;;
58250;SDS011;51449;51.676;5.812;2023-09-19T15:10:56;2.08;;;1.20;;
58250;SDS011;51449;51.676;5.812;2023-09-19T15:13:20;2.75;;;1.38;;
58250;SDS011;51449;51.676;5.812;2023-09-19T15:15:42;2.90;;;1.60;;
58250;SDS011;51449;51.676;5.812;2023-09-19T15:18:05;1.25;;;1.15;;